DLH76U EDDL-EDDH
Flight info
| Callsign | DLH76U |
|---|---|
| Flight time | N/A |
| Altitude | 33000 |
| Route | MEVEL1Z/05R MEVEL DCT EVDAL DCT BASUM DCT RIBSO RIBSO7A |
| Aircraft | A20N/M-SDE2E3FGHIRWXY/LB1 |
Departure
| Time | 2026-04-30 10:57 |
|---|---|
| Airport | Düsseldorf Airport (EDDL) |
Arrival
| Time | N/A |
|---|---|
| Airport | Hamburg Helmut Schmidt Airport (EDDH) |
| Time | Latitude | Longitude | Altitude | Speed | Heading |
|---|---|---|---|---|---|
| 2026-04-30 10:28 | 51.28106 | 6.76718 | 128 ft | 0 kts | 276° |
| 2026-04-30 10:46 | 51.28105 | 6.76736 | 124 ft | 2 kts | 276° |
| 2026-04-30 10:46 | 51.28103 | 6.76766 | 126 ft | 3 kts | 258° |
| 2026-04-30 10:47 | 51.28111 | 6.76796 | 124 ft | 3 kts | 232° |
| 2026-04-30 10:47 | 51.28125 | 6.76818 | 127 ft | 3 kts | 205° |
| 2026-04-30 10:47 | 51.28145 | 6.76830 | 125 ft | 2 kts | 191° |
| 2026-04-30 10:47 | 51.28162 | 6.76835 | 129 ft | 2 kts | 191° |
| 2026-04-30 10:48 | 51.28183 | 6.76840 | 129 ft | 2 kts | 188° |
| 2026-04-30 10:48 | 51.28207 | 6.76845 | 128 ft | 4 kts | 185° |
| 2026-04-30 10:48 | 51.28232 | 6.76849 | 127 ft | 4 kts | 186° |
| 2026-04-30 10:48 | 51.28258 | 6.76853 | 127 ft | 4 kts | 186° |
| 2026-04-30 10:49 | 51.28285 | 6.76857 | 128 ft | 4 kts | 193° |
| 2026-04-30 10:49 | 51.28312 | 6.76875 | 123 ft | 4 kts | 218° |
| 2026-04-30 10:49 | 51.28333 | 6.76911 | 124 ft | 5 kts | 230° |
| 2026-04-30 10:49 | 51.28355 | 6.76954 | 123 ft | 5 kts | 233° |
| 2026-04-30 10:50 | 51.28367 | 6.76980 | 125 ft | 0 kts | 233° |
| 2026-04-30 10:52 | 51.28363 | 6.76971 | 124 ft | 3 kts | 233° |
| 2026-04-30 10:52 | 51.28349 | 6.76926 | 123 ft | 6 kts | 257° |
| 2026-04-30 10:52 | 51.28382 | 6.76850 | 126 ft | 11 kts | 322° |
| 2026-04-30 10:53 | 51.28452 | 6.76753 | 126 ft | 13 kts | 294° |
| 2026-04-30 10:53 | 51.28411 | 6.76611 | 123 ft | 17 kts | 232° |
| 2026-04-30 10:53 | 51.28334 | 6.76450 | 121 ft | 19 kts | 233° |
| 2026-04-30 10:53 | 51.28250 | 6.76274 | 125 ft | 21 kts | 232° |
| 2026-04-30 10:54 | 51.28194 | 6.76155 | 126 ft | 20 kts | 233° |
| 2026-04-30 10:54 | 51.28115 | 6.75991 | 129 ft | 17 kts | 232° |
| 2026-04-30 10:54 | 51.28038 | 6.75830 | 127 ft | 18 kts | 232° |
| 2026-04-30 10:54 | 51.27960 | 6.75666 | 125 ft | 20 kts | 232° |
| 2026-04-30 10:55 | 51.27875 | 6.75486 | 125 ft | 22 kts | 233° |
| 2026-04-30 10:55 | 51.27844 | 6.75418 | 123 ft | 6 kts | 239° |
| 2026-04-30 10:55 | 51.27856 | 6.75335 | 123 ft | 9 kts | 323° |
| 2026-04-30 10:55 | 51.27931 | 6.75275 | 120 ft | 14 kts | 337° |
| 2026-04-30 10:56 | 51.28023 | 6.75329 | 124 ft | 16 kts | 52° |
| 2026-04-30 10:56 | 51.28094 | 6.75480 | 124 ft | 22 kts | 52° |
| 2026-04-30 10:56 | 51.28277 | 6.75865 | 128 ft | 81 kts | 53° |
| 2026-04-30 10:56 | 51.28777 | 6.76918 | 133 ft | 153 kts | 56° |
| 2026-04-30 10:57 | 51.29469 | 6.78326 | 752 ft | 163 kts | 55° |
| 2026-04-30 10:57 | 51.30200 | 6.79720 | 1462 ft | 156 kts | 55° |
| 2026-04-30 10:57 | 51.30879 | 6.81004 | 1800 ft | 159 kts | 54° |
| 2026-04-30 10:57 | 51.31614 | 6.82511 | 2260 ft | 185 kts | 57° |
| 2026-04-30 10:58 | 51.32415 | 6.84310 | 2669 ft | 213 kts | 60° |
| 2026-04-30 10:58 | 51.33294 | 6.86402 | 3112 ft | 239 kts | 60° |
| 2026-04-30 10:58 | 51.34284 | 6.88595 | 3532 ft | 246 kts | 57° |
| 2026-04-30 10:58 | 51.35595 | 6.90461 | 3638 ft | 261 kts | 36° |
| 2026-04-30 10:59 | 51.37301 | 6.91436 | 3849 ft | 263 kts | 17° |
| 2026-04-30 10:59 | 51.39151 | 6.91857 | 4174 ft | 277 kts | 13° |
| 2026-04-30 10:59 | 51.41072 | 6.92227 | 5154 ft | 273 kts | 12° |
| 2026-04-30 10:59 | 51.42949 | 6.92541 | 6233 ft | 272 kts | 11° |
| 2026-04-30 11:00 | 51.44847 | 6.92817 | 7247 ft | 276 kts | 10° |
| 2026-04-30 11:00 | 51.46781 | 6.93055 | 8191 ft | 281 kts | 9° |
| 2026-04-30 11:00 | 51.48759 | 6.93243 | 9128 ft | 288 kts | 7° |
| 2026-04-30 11:00 | 51.50766 | 6.93351 | 10140 ft | 290 kts | 5° |
| 2026-04-30 11:01 | 51.52814 | 6.93175 | 10943 ft | 302 kts | 0° |
| 2026-04-30 11:01 | 51.54950 | 6.92852 | 11393 ft | 323 kts | 358° |
| 2026-04-30 11:01 | 51.57265 | 6.92372 | 11788 ft | 344 kts | 355° |
| 2026-04-30 11:01 | 51.59641 | 6.91715 | 12652 ft | 348 kts | 354° |
| 2026-04-30 11:02 | 51.62034 | 6.91004 | 13543 ft | 351 kts | 354° |
| 2026-04-30 11:02 | 51.64448 | 6.90291 | 14397 ft | 354 kts | 354° |
| 2026-04-30 11:02 | 51.66893 | 6.89634 | 15149 ft | 356 kts | 359° |
| 2026-04-30 11:02 | 51.69341 | 6.89937 | 15844 ft | 352 kts | 19° |
| 2026-04-30 11:03 | 51.71562 | 6.91527 | 16575 ft | 349 kts | 37° |
| 2026-04-30 11:03 | 51.73324 | 6.94193 | 17296 ft | 349 kts | 54° |
| 2026-04-30 11:03 | 51.74293 | 6.96289 | 17732 ft | 352 kts | 55° |
| 2026-04-30 11:04 | 51.75348 | 6.98609 | 18018 ft | 336 kts | 56° |